aviador You're here:

KBKW Decoded Metar

BECKLEY in WV, USA
Report Time2017-08-18 00:51:00
UTC Time2017-08-18 01:14:19
Flight Rules vfr VFR
Wind210° at 03 kt
W.Decomp.*RWY 19: 2.7 kt HW 1.3 kt RCW
RWY 28: 1.3 kt HW 2.7 kt LCW
W.Rank210° ranks 17
Current wind is below 210° avg. (6.1)
Visibility9999 m
Phenomena:N/A
Clouds:Few 037 Hf
Expected CloudBase > 800 ft AGL from Temp-Dew spread
CeilingNone
Temp23°C (ISA +13)
Dew Point21°C (89% RH)
QNH1018 hPa
Density Alt4,183 ft
Elevation2,507 ft
Report Wrong Elevation
Raw Report
METAR KBKW 180051Z AUTO 21003KT 10SM FEW037 23/21 A3005 RMK AO2 SLP139
T02330206 TSNO=

Extra information for KBKW:More info

Metar Taf Metar & Taf Last 4 Metars F.Rules Stats Wind Profile Meteogram Temp Stats Airport Information Weather charts Add Link Nearby VenuesMetar ALERT Operation Metar Decoded Social comments

AIRNAV info for KBKW